Time,TemperatureF,DewpointF,PressureIn,WindDirection,WindDirectionDegrees,WindSpeedMPH,WindSpeedGustMPH,Humidity,HourlyPrecipIn,Conditions,Clouds,dailyrainin,SoftwareType,DateUTC
2013-07-24 00:12:00,68.5,68.0,29.48,WSW,246,0.0,-999.0,97,-99.99,,,0.00,weatherlink.com 1.10,2013-07-24 04:12:00,
2013-07-24 00:27:00,68.3,68.0,29.48,WSW,246,0.0,-999.0,97,-99.99,,,0.00,weatherlink.com 1.10,2013-07-24 04:27:00,
2013-07-24 00:42:00,68.0,67.0,29.48,WSW,246,0.0,-999.0,97,-99.99,,,0.00,weatherlink.com 1.10,2013-07-24 04:42:00,
2013-07-24 00:57:00,67.8,67.0,29.48,WSW,247,0.0,-999.0,97,-99.99,,,0.00,weatherlink.com 1.10,2013-07-24 04:57:00,
2013-07-24 01:12:00,67.7,67.0,29.48,WSW,247,0.0,-999.0,97,-99.99,,,0.00,weatherlink.com 1.10,2013-07-24 05:12:00,
2013-07-24 01:27:00,67.5,67.0,29.47,WSW,247,0.0,-999.0,97,-99.99,,,0.00,weatherlink.com 1.10,2013-07-24 05:27:00,
2013-07-24 01:42:00,67.5,67.0,29.47,WSW,247,0.0,-999.0,97,-99.99,,,0.00,weatherlink.com 1.10,2013-07-24 05:42:00,
2013-07-24 01:57:00,67.6,67.0,29.47,WSW,247,0.0,-999.0,97,-99.99,,,0.00,weatherlink.com 1.10,2013-07-24 05:57:00,
2013-07-24 02:12:00,67.7,67.0,29.48,WSW,247,0.0,-999.0,97,-99.99,,,0.00,weatherlink.com 1.10,2013-07-24 06:12:00,
2013-07-24 02:27:00,67.9,67.0,29.47,SSE,161,0.0,-999.0,98,-99.99,,,0.00,weatherlink.com 1.10,2013-07-24 06:27:00,
2013-07-24 02:42:00,67.9,67.0,29.47,SSE,161,0.0,-999.0,98,-99.99,,,0.00,weatherlink.com 1.10,2013-07-24 06:42:00,
2013-07-24 02:57:00,67.9,67.0,29.47,SSE,161,0.0,-999.0,98,-99.99,,,0.00,weatherlink.com 1.10,2013-07-24 06:57:00,
2013-07-24 03:12:00,67.9,67.0,29.47,SSE,161,0.0,-999.0,98,-99.99,,,0.01,weatherlink.com 1.10,2013-07-24 07:12:00,
2013-07-24 03:27:00,68.0,68.0,29.47,SSE,161,0.0,-999.0,98,-99.99,,,0.01,weatherlink.com 1.10,2013-07-24 07:27:00,
2013-07-24 03:42:00,68.0,68.0,29.47,SSE,161,0.0,-999.0,98,-99.99,,,0.01,weatherlink.com 1.10,2013-07-24 07:42:00,
2013-07-24 03:57:00,68.0,68.0,29.47,SSE,161,0.0,-999.0,98,-99.99,,,0.01,weatherlink.com 1.10,2013-07-24 07:57:00,
2013-07-24 04:12:00,68.1,68.0,29.48,SSE,161,0.0,-999.0,98,-99.99,,,0.01,weatherlink.com 1.10,2013-07-24 08:12:00,
2013-07-24 04:27:00,67.9,67.0,29.48,SSE,161,0.0,-999.0,98,-99.99,,,0.01,weatherlink.com 1.10,2013-07-24 08:27:00,
2013-07-24 04:42:00,68.0,68.0,29.48,SSE,160,0.0,-999.0,98,-99.99,,,0.01,weatherlink.com 1.10,2013-07-24 08:42:00,
2013-07-24 04:57:00,68.1,68.0,29.48,SSE,160,0.0,-999.0,98,-99.99,,,0.01,weatherlink.com 1.10,2013-07-24 08:57:00,
2013-07-24 05:12:00,68.3,68.0,29.48,SSE,161,0.0,-999.0,98,-99.99,,,0.01,weatherlink.com 1.10,2013-07-24 09:12:00,
2013-07-24 05:27:00,68.3,68.0,29.48,SSE,160,0.0,-999.0,98,-99.99,,,0.01,weatherlink.com 1.10,2013-07-24 09:27:00,
2013-07-24 05:42:00,68.3,68.0,29.48,SSE,160,0.0,-999.0,98,-99.99,,,0.01,weatherlink.com 1.10,2013-07-24 09:42:00,
2013-07-24 05:57:00,68.4,68.0,29.48,SSE,160,0.0,-999.0,98,-99.99,,,0.01,weatherlink.com 1.10,2013-07-24 09:57:00,
2013-07-24 06:12:00,68.5,68.0,29.48,SSE,161,0.0,-999.0,98,-99.99,,,0.01,weatherlink.com 1.10,2013-07-24 10:12:00,
2013-07-24 06:27:00,68.6,68.0,29.48,SSE,161,0.0,-999.0,98,-99.99,,,0.01,weatherlink.com 1.10,2013-07-24 10:27:00,
2013-07-24 06:42:00,68.9,68.0,29.49,SSE,161,0.0,-999.0,98,-99.99,,,0.01,weatherlink.com 1.10,2013-07-24 10:42:00,
2013-07-24 06:57:00,69.5,69.0,29.49,SSE,161,0.0,-999.0,98,-99.99,,,0.01,weatherlink.com 1.10,2013-07-24 10:57:00,
2013-07-24 07:12:00,70.4,70.0,29.50,SW,221,0.0,-999.0,98,-99.99,,,0.01,weatherlink.com 1.10,2013-07-24 11:12:00,
2013-07-24 07:27:00,71.2,71.0,29.50,WSW,248,0.0,-999.0,98,-99.99,,,0.01,weatherlink.com 1.10,2013-07-24 11:27:00,
2013-07-24 07:42:00,72.1,72.0,29.50,WSW,240,0.0,-999.0,98,-99.99,,,0.01,weatherlink.com 1.10,2013-07-24 11:42:00,
2013-07-24 07:57:00,72.6,72.0,29.50,SW,231,0.0,-999.0,98,-99.99,,,0.01,weatherlink.com 1.10,2013-07-24 11:57:00,
2013-07-24 08:12:00,73.1,73.0,29.51,WSW,242,0.0,-999.0,98,-99.99,,,0.01,weatherlink.com 1.10,2013-07-24 12:12:00,
2013-07-24 08:27:00,73.9,73.0,29.51,WSW,252,0.0,-999.0,98,-99.99,,,0.01,weatherlink.com 1.10,2013-07-24 12:27:00,
2013-07-24 08:42:00,74.1,73.0,29.51,SSW,208,0.0,-999.0,96,-99.99,,,0.01,weatherlink.com 1.10,2013-07-24 12:42:00,
2013-07-24 08:57:00,75.4,74.0,29.52,North,360,0.0,-999.0,96,-99.99,,,0.01,weatherlink.com 1.10,2013-07-24 12:57:00,
2013-07-24 09:12:00,76.2,73.0,29.52,North,360,0.0,-999.0,90,-99.99,,,0.01,weatherlink.com 1.10,2013-07-24 13:12:00,
2013-07-24 09:27:00,76.6,74.0,29.52,WSW,240,0.0,-999.0,90,-99.99,,,0.01,weatherlink.com 1.10,2013-07-24 13:27:00,
2013-07-24 09:42:00,77.6,74.0,29.53,NE,51,0.0,-999.0,89,-99.99,,,0.01,weatherlink.com 1.10,2013-07-24 13:42:00,
2013-07-24 09:57:00,77.8,73.0,29.54,South,189,0.0,-999.0,84,-99.99,,,0.01,weatherlink.com 1.10,2013-07-24 13:57:00,
2013-07-24 10:12:00,78.8,73.0,29.54,North,9,0.0,-999.0,83,-99.99,,,0.01,weatherlink.com 1.10,2013-07-24 14:12:00,
2013-07-24 10:27:00,79.9,73.0,29.54,North,360,0.0,-999.0,79,-99.99,,,0.01,weatherlink.com 1.10,2013-07-24 14:27:00,
2013-07-24 10:42:00,80.9,73.0,29.54,NW,313,0.0,-999.0,78,-99.99,,,0.01,weatherlink.com 1.10,2013-07-24 14:42:00,
2013-07-24 10:57:00,81.7,72.0,29.54,NW,313,0.0,-999.0,73,-99.99,,,0.01,weatherlink.com 1.10,2013-07-24 14:57:00,
2013-07-24 11:13:00,82.6,72.0,29.54,North,360,0.0,-999.0,70,-99.99,,,0.01,weatherlink.com 1.10,2013-07-24 15:13:00,
2013-07-24 11:28:00,82.9,73.0,29.55,North,360,0.0,-999.0,73,-99.99,,,0.01,weatherlink.com 1.10,2013-07-24 15:28:00,
2013-07-24 11:43:00,82.4,71.0,29.56,North,360,0.0,-999.0,68,-99.99,,,0.01,weatherlink.com 1.10,2013-07-24 15:43:00,
2013-07-24 11:58:00,83.0,72.0,29.56,North,360,0.0,-999.0,70,-99.99,,,0.01,weatherlink.com 1.10,2013-07-24 15:58:00,
2013-07-24 12:13:00,83.0,71.0,29.57,North,360,0.0,-999.0,68,-99.99,,,0.01,weatherlink.com 1.10,2013-07-24 16:13:00,
2013-07-24 12:28:00,84.1,74.0,29.56,North,360,0.0,-999.0,71,-99.99,,,0.01,weatherlink.com 1.10,2013-07-24 16:28:00,
2013-07-24 12:43:00,83.8,72.0,29.57,North,360,0.0,-999.0,68,-99.99,,,0.01,weatherlink.com 1.10,2013-07-24 16:43:00,
2013-07-24 12:58:00,83.0,72.0,29.57,North,360,0.0,-999.0,70,-99.99,,,0.01,weatherlink.com 1.10,2013-07-24 16:58:00,
2013-07-24 13:13:00,83.8,75.0,29.56,North,360,0.0,-999.0,74,-99.99,,,0.01,weatherlink.com 1.10,2013-07-24 17:13:00,
2013-07-24 13:28:00,83.2,72.0,29.56,North,360,0.0,-999.0,69,-99.99,,,0.01,weatherlink.com 1.10,2013-07-24 17:28:00,
2013-07-24 13:43:00,84.2,72.0,29.56,North,360,0.0,-999.0,67,-99.99,,,0.01,weatherlink.com 1.10,2013-07-24 17:43:00,
2013-07-24 13:58:00,84.2,71.0,29.56,North,360,0.0,-999.0,64,-99.99,,,0.01,weatherlink.com 1.10,2013-07-24 17:58:00,
2013-07-24 14:13:00,83.0,70.0,29.58,North,360,0.0,-999.0,66,-99.99,,,0.01,weatherlink.com 1.10,2013-07-24 18:13:00,
2013-07-24 14:28:00,81.4,69.0,29.58,North,360,0.0,-999.0,67,-99.99,,,0.01,weatherlink.com 1.10,2013-07-24 18:28:00,
2013-07-24 14:43:00,82.7,70.0,29.58,North,360,0.0,-999.0,66,-99.99,,,0.01,weatherlink.com 1.10,2013-07-24 18:43:00,
2013-07-24 14:58:00,83.1,69.0,29.59,North,360,0.0,-999.0,63,-99.99,,,0.01,weatherlink.com 1.10,2013-07-24 18:58:00,
2013-07-24 15:13:00,83.6,71.0,29.59,North,360,0.0,-999.0,65,-99.99,,,0.01,weatherlink.com 1.10,2013-07-24 19:13:00,
2013-07-24 15:28:00,81.8,68.0,29.60,North,360,0.0,-999.0,64,-99.99,,,0.01,weatherlink.com 1.10,2013-07-24 19:28:00,
2013-07-24 15:43:00,81.5,68.0,29.61,NE,34,0.0,-999.0,64,-99.99,,,0.01,weatherlink.com 1.10,2013-07-24 19:43:00,
2013-07-24 15:58:00,79.9,68.0,29.61,NW,320,0.0,-999.0,68,-99.99,,,0.01,weatherlink.com 1.10,2013-07-24 19:58:00,
2013-07-24 16:13:00,80.2,68.0,29.62,NNE,17,0.0,-999.0,67,-99.99,,,0.01,weatherlink.com 1.10,2013-07-24 20:13:00,
2013-07-24 16:28:00,80.8,68.0,29.63,WNW,285,0.0,-999.0,65,-99.99,,,0.01,weatherlink.com 1.10,2013-07-24 20:28:00,
2013-07-24 16:43:00,81.2,67.0,29.63,North,360,0.0,-999.0,62,-99.99,,,0.01,weatherlink.com 1.10,2013-07-24 20:43:00,
2013-07-24 16:58:00,80.4,65.0,29.63,NNE,24,0.0,-999.0,60,-99.99,,,0.01,weatherlink.com 1.10,2013-07-24 20:58:00,
2013-07-24 17:13:00,79.8,64.0,29.64,NNE,19,0.0,-999.0,59,-99.99,,,0.01,weatherlink.com 1.10,2013-07-24 21:13:00,
2013-07-24 17:28:00,79.8,65.0,29.64,NW,319,0.0,-999.0,60,-99.99,,,0.01,weatherlink.com 1.10,2013-07-24 21:28:00,
2013-07-24 17:43:00,78.8,65.0,29.64,NW,319,0.0,-999.0,62,-99.99,,,0.01,weatherlink.com 1.10,2013-07-24 21:43:00,
2013-07-24 17:58:00,77.5,65.0,29.65,West,275,0.0,-999.0,65,-99.99,,,0.01,weatherlink.com 1.10,2013-07-24 21:58:00,
2013-07-24 18:13:00,76.9,66.0,29.66,West,271,0.0,-999.0,68,-99.99,,,0.01,weatherlink.com 1.10,2013-07-24 22:13:00,
2013-07-24 18:28:00,76.4,66.0,29.66,NE,42,0.0,-999.0,69,-99.99,,,0.01,weatherlink.com 1.10,2013-07-24 22:28:00,
2013-07-24 18:43:00,75.7,64.0,29.67,NNE,31,0.0,-999.0,68,-99.99,,,0.01,weatherlink.com 1.10,2013-07-24 22:43:00,
2013-07-24 18:58:00,75.3,65.0,29.68,NW,316,0.0,-999.0,70,-99.99,,,0.01,weatherlink.com 1.10,2013-07-24 22:58:00,
2013-07-24 19:13:00,75.0,65.0,29.69,North,350,0.0,-999.0,71,-99.99,,,0.01,weatherlink.com 1.10,2013-07-24 23:13:00,
2013-07-24 19:28:00,74.5,64.0,29.70,NE,34,0.0,-999.0,70,-99.99,,,0.01,weatherlink.com 1.10,2013-07-24 23:28:00,
2013-07-24 19:43:00,73.9,64.0,29.71,NNE,24,0.0,-999.0,70,-99.99,,,0.01,weatherlink.com 1.10,2013-07-24 23:43:00,
2013-07-24 19:58:00,72.9,63.0,29.72,NE,42,0.0,-999.0,70,-99.99,,,0.01,weatherlink.com 1.10,2013-07-24 23:58:00,
2013-07-24 20:13:00,72.2,61.0,29.74,NNW,343,0.0,-999.0,68,-99.99,,,0.01,weatherlink.com 1.10,2013-07-25 00:13:00,
2013-07-24 20:28:00,71.5,61.0,29.75,NE,55,0.0,-999.0,69,-99.99,,,0.01,weatherlink.com 1.10,2013-07-25 00:28:00,
2013-07-24 20:43:00,70.8,61.0,29.76,NNE,33,0.0,-999.0,70,-99.99,,,0.01,weatherlink.com 1.10,2013-07-25 00:43:00,
2013-07-24 20:58:00,69.9,60.0,29.77,NE,34,0.0,-999.0,72,-99.99,,,0.01,weatherlink.com 1.10,2013-07-25 00:58:00,
2013-07-24 21:13:00,69.4,60.0,29.78,NNE,25,0.0,-999.0,73,-99.99,,,0.01,weatherlink.com 1.10,2013-07-25 01:13:00,
2013-07-24 21:28:00,68.9,60.0,29.79,NNW,344,0.0,-999.0,73,-99.99,,,0.01,weatherlink.com 1.10,2013-07-25 01:28:00,
2013-07-24 21:43:00,68.2,59.0,29.80,NNE,17,0.0,-999.0,73,-99.99,,,0.01,weatherlink.com 1.10,2013-07-25 01:43:00,
2013-07-24 21:58:00,67.6,59.0,29.80,NNW,335,0.0,-999.0,73,-99.99,,,0.01,weatherlink.com 1.10,2013-07-25 01:58:00,
2013-07-24 22:13:00,67.2,58.0,29.80,NNE,23,0.0,-999.0,72,-99.99,,,0.01,weatherlink.com 1.10,2013-07-25 02:13:00,
2013-07-24 22:28:00,66.8,56.0,29.82,NNE,26,0.0,-999.0,69,-99.99,,,0.01,weatherlink.com 1.10,2013-07-25 02:28:00,
2013-07-24 22:43:00,66.4,56.0,29.82,NNW,346,0.0,-999.0,70,-99.99,,,0.01,weatherlink.com 1.10,2013-07-25 02:43:00,
2013-07-24 22:58:00,65.9,56.0,29.83,WNW,302,3.0,-999.0,70,-99.99,,,0.01,weatherlink.com 1.10,2013-07-25 02:58:00,
2013-07-24 23:13:00,65.3,56.0,29.83,NNE,22,0.0,-999.0,71,-99.99,,,0.01,weatherlink.com 1.10,2013-07-25 03:13:00,
2013-07-24 23:43:00,64.0,56.0,29.85,NNW,336,0.0,-999.0,74,-99.99,,,0.01,weatherlink.com 1.10,2013-07-25 03:43:00,